Accueil
METAR-TAF:

METAR-TAF

Aéroports :

Buochs, Suisse

latitude: 46-58-28N, longitude: 8-23-49E, altitude: 449 m

Observation

Le bulletin a été fait il y a 37 minutes, à 21:20 UTC
Vent 2 kt de ouest
Température 17°C
Humidité 88%
Pression 1026 hPa
Visibilité 10 km ou plus
Ciel couvert à une hauteur de 2200 ft

METAR: LSZC 222120Z AUTO 28002KT 9999 OVC022 17/15 Q1026

Heure: 23:57 (21:57 UTC)

Prévision

Le bulletin a été fait il y a 7 heures et 32 minutes, à 14:25 UTC
Prévision valable du 22 à 15 UTC au 22 à 24 UTC
Vent 6 kt de nord/nord-ouest
Visibilité 10 km ou plus
Nuages fragmentés à une hauteur de 2100 ft
Probabilité 30% :
Temporairement
du 22 à 18 UTC au 22 à 24 UTC
Nuages épars à une hauteur de 2800 ft

TAF: LSZC 221425Z 2215/2224 33006KT 9999 BKN021 PROB30 TEMPO 2218/2224 SCT028

Observations et prévisions météorologiques de plus de 4000 aéroports (messages METAR et TAF).

Les stations disponibles sont représentées par des disques jaunes et rouges sur la carte.

Passer la souris dessus pour voir le nom de la station.

Cliquer dessus pour voir les observations et prévisions météorologiques.

Pour changer de carte: cliquez sur les boutons verts avec une croix noire pour zoomer, sur le bouton vert avec un tiret pour effectuer un zoom arrière, ou sur les flèches vertes pour les cartes adjacentes.


METAR-TAF: